Bungoma Airport


Codes: HKBU/
Name: Bungoma Airport
City: Bungoma
Country: Kenya
Elevation: 4726 ft.

Photos at Bungoma Airport


   Photos courtesy of SpottingLog. You can add your own sightings and photos by signing up for a free trial today.



No photos found.

Weather at Bungoma Airport


Time (UTC)DescriptionTempratureWindCloud coverageVisibilityPressureHumidity
23-May-2024 21:00Light Rain18°C4 mph, NE93%10000m1015hPa86%
24-May-2024 00:00Overcast Clouds18°C4 mph, NE92%10000m1014hPa86%
24-May-2024 03:00Overcast Clouds17°C2 mph, NE89%10000m1015hPa86%
24-May-2024 06:00Overcast Clouds21°C2 mph, N85%10000m1016hPa77%
24-May-2024 09:00Light Rain23°C7 mph, W42%8965m1014hPa74%
24-May-2024 12:00Light Rain23°C7 mph, W37%10000m1011hPa76%
24-May-2024 15:00Moderate Rain20°C4 mph, W53%6967m1013hPa90%
24-May-2024 18:00Moderate Rain19°C2 mph, N77%10000m1015hPa90%
24-May-2024 21:00Moderate Rain18°C2 mph, E100%10000m1016hPa96%
25-May-2024 00:00Light Rain17°C2 mph, SE100%10000m1015hPa97%
25-May-2024 03:00Light Rain17°C0 mph, N100%10000m1016hPa97%
25-May-2024 06:00Light Rain18°C2 mph, SW99%10000m1018hPa94%
25-May-2024 09:00Light Rain22°C4 mph, SW87%10000m1016hPa76%
25-May-2024 12:00Light Rain23°C4 mph, SW91%10000m1013hPa75%
25-May-2024 15:00Light Rain20°C4 mph, W96%10000m1014hPa90%
25-May-2024 18:00Moderate Rain18°C0 mph, N98%10000m1016hPa92%
25-May-2024 21:00Light Rain18°C4 mph, NE100%10000m1016hPa93%
26-May-2024 00:00Light Rain17°C2 mph, NE100%10000m1015hPa90%
26-May-2024 03:00Overcast Clouds17°C4 mph, NE97%10000m1016hPa89%
26-May-2024 06:00Overcast Clouds20°C4 mph, E89%10000m1017hPa80%
26-May-2024 09:00Light Rain25°C2 mph, W39%10000m1015hPa64%
26-May-2024 12:00Light Rain24°C7 mph, W38%10000m1014hPa69%
26-May-2024 15:00Light Rain21°C2 mph, NW57%10000m1014hPa84%
26-May-2024 18:00Moderate Rain18°C4 mph, NE73%10000m1017hPa89%
26-May-2024 21:00Light Rain18°C4 mph, NE84%10000m1017hPa88%
27-May-2024 00:00Overcast Clouds16°C4 mph, NE89%10000m1016hPa88%
27-May-2024 03:00Broken Clouds16°C4 mph, NE81%10000m1017hPa87%
27-May-2024 06:00Broken Clouds21°C4 mph, NE52%10000m1017hPa76%
27-May-2024 09:00Light Rain25°C2 mph, W6%10000m1015hPa63%
27-May-2024 12:00Light Rain25°C7 mph, NW49%10000m1013hPa66%
27-May-2024 15:00Light Rain21°C2 mph, NW90%10000m1014hPa81%
27-May-2024 18:00Light Rain19°C2 mph, NE81%10000m1016hPa83%
27-May-2024 21:00Scattered Clouds17°C4 mph, NE42%10000m1017hPa87%
28-May-2024 00:00Scattered Clouds16°C4 mph, NE43%10000m1016hPa86%
28-May-2024 03:00Broken Clouds16°C4 mph, NE69%10000m1017hPa85%
28-May-2024 06:00Broken Clouds21°C4 mph, E81%10000m1017hPa75%
28-May-2024 09:00Light Rain25°C4 mph, SW30%10000m1015hPa62%
28-May-2024 12:00Light Rain26°C4 mph, W35%10000m1013hPa61%
28-May-2024 15:00Moderate Rain22°C0 mph, NW60%10000m1014hPa81%
28-May-2024 18:00Light Rain18°C2 mph, E62%10000m1016hPa88%